Asherville, Missouri
Current Conditions -  °F | °C
As of 2:53 PM on Tuesday 25 Nov 2014 (Local Time) from KPOF Reporting Station
Clear Clear  
Wind Chill:   Ceiling: Unl
Heat Index:   Visibility: 10mi
Dew Point: -7°   Wind: 7mph
Humidity: 34%   Direction: 290°WNW
Pressure: 30.14"   Gusts: NA
Location:  36.9506°N, 90.1582°W
Report Text: KPOF 252053Z AUTO 29006KT 10SM CLR 08/M07 A3014 RMK AO2 SLP210 T00831067 56020
Loading
Personal Weather Stations






























Interactive Weather Map New forecast layout! Learn more

10-Day Weather Forecast

Advertisements
Track Severe Weather on mobile